sensor_id;sensor_type;location;lat;lon;timestamp;pressure;altitude;pressure_sealevel;temperature;humidity
56689;BME280;42565;53.342;-1.534;2023-05-29T00:00:55;100301.44;;;12.77;51.32
56689;BME280;42565;53.342;-1.534;2023-05-29T00:03:23;100303.95;;;12.76;51.49
56689;BME280;42565;53.342;-1.534;2023-05-29T00:05:50;100301.57;;;12.66;52.25
56689;BME280;42565;53.342;-1.534;2023-05-29T00:08:17;100300.92;;;12.53;52.52
56689;BME280;42565;53.342;-1.534;2023-05-29T00:10:44;100298.45;;;12.28;52.93
56689;BME280;42565;53.342;-1.534;2023-05-29T00:13:10;100301.90;;;12.11;53.33
56689;BME280;42565;53.342;-1.534;2023-05-29T00:15:37;100302.00;;;12.36;53.05
56689;BME280;42565;53.342;-1.534;2023-05-29T00:18:04;100302.26;;;12.10;53.35
56689;BME280;42565;53.342;-1.534;2023-05-29T00:20:31;100302.47;;;11.59;53.68
56689;BME280;42565;53.342;-1.534;2023-05-29T00:22:58;100305.03;;;12.29;53.33
56689;BME280;42565;53.342;-1.534;2023-05-29T00:25:25;100305.86;;;12.12;53.76
56689;BME280;42565;53.342;-1.534;2023-05-29T00:27:52;100303.88;;;12.27;53.23
56689;BME280;42565;53.342;-1.534;2023-05-29T00:30:19;100305.24;;;12.13;53.79
56689;BME280;42565;53.342;-1.534;2023-05-29T00:32:46;100309.13;;;12.17;53.75
56689;BME280;42565;53.342;-1.534;2023-05-29T00:35:12;100308.09;;;12.01;53.96
56689;BME280;42565;53.342;-1.534;2023-05-29T00:37:40;100308.51;;;11.82;54.55
56689;BME280;42565;53.342;-1.534;2023-05-29T00:40:07;100312.43;;;12.19;53.84
56689;BME280;42565;53.342;-1.534;2023-05-29T00:42:35;100308.90;;;12.21;54.11
56689;BME280;42565;53.342;-1.534;2023-05-29T00:45:02;100306.58;;;12.15;54.03
56689;BME280;42565;53.342;-1.534;2023-05-29T00:47:29;100301.97;;;11.52;54.67
56689;BME280;42565;53.342;-1.534;2023-05-29T00:49:57;100297.85;;;12.11;54.23
56689;BME280;42565;53.342;-1.534;2023-05-29T00:52:26;100297.57;;;12.40;54.32
56689;BME280;42565;53.342;-1.534;2023-05-29T00:54:54;100299.61;;;11.74;54.61
56689;BME280;42565;53.342;-1.534;2023-05-29T00:57:23;100299.63;;;12.54;53.25
56689;BME280;42565;53.342;-1.534;2023-05-29T00:59:50;100299.39;;;12.46;53.70
56689;BME280;42565;53.342;-1.534;2023-05-29T01:02:18;100301.05;;;12.16;54.15
56689;BME280;42565;53.342;-1.534;2023-05-29T01:04:46;100302.44;;;12.26;53.78
56689;BME280;42565;53.342;-1.534;2023-05-29T01:07:14;100298.42;;;12.47;53.24
56689;BME280;42565;53.342;-1.534;2023-05-29T01:09:41;100303.55;;;12.46;52.28
56689;BME280;42565;53.342;-1.534;2023-05-29T01:12:19;100308.48;;;12.02;53.93
56689;BME280;42565;53.342;-1.534;2023-05-29T01:14:59;100310.96;;;12.72;53.00
56689;BME280;42565;53.342;-1.534;2023-05-29T01:17:39;100309.37;;;12.21;53.17
56689;BME280;42565;53.342;-1.534;2023-05-29T01:20:18;100311.85;;;12.33;53.78
56689;BME280;42565;53.342;-1.534;2023-05-29T01:23:07;100310.63;;;12.40;53.17
56689;BME280;42565;53.342;-1.534;2023-05-29T01:25:48;100312.17;;;12.26;53.73
56689;BME280;42565;53.342;-1.534;2023-05-29T01:28:20;100317.92;;;12.42;53.68
56689;BME280;42565;53.342;-1.534;2023-05-29T01:30:49;100319.59;;;12.26;53.99
56689;BME280;42565;53.342;-1.534;2023-05-29T01:33:17;100318.04;;;12.22;54.48
56689;BME280;42565;53.342;-1.534;2023-05-29T01:35:44;100314.64;;;12.29;55.01
56689;BME280;42565;53.342;-1.534;2023-05-29T01:38:11;100315.60;;;11.97;55.53
56689;BME280;42565;53.342;-1.534;2023-05-29T01:40:39;100317.68;;;11.76;55.47
56689;BME280;42565;53.342;-1.534;2023-05-29T01:43:06;100319.50;;;11.71;55.73
56689;BME280;42565;53.342;-1.534;2023-05-29T01:45:34;100316.59;;;11.24;55.89
56689;BME280;42565;53.342;-1.534;2023-05-29T01:48:02;100320.55;;;11.94;56.04
56689;BME280;42565;53.342;-1.534;2023-05-29T01:50:31;100323.91;;;11.57;55.75
56689;BME280;42565;53.342;-1.534;2023-05-29T01:52:58;100322.66;;;12.22;55.05
56689;BME280;42565;53.342;-1.534;2023-05-29T01:55:26;100321.98;;;11.81;55.65
56689;BME280;42565;53.342;-1.534;2023-05-29T01:57:54;100321.47;;;12.10;56.26
56689;BME280;42565;53.342;-1.534;2023-05-29T02:00:21;100313.53;;;12.30;55.52
56689;BME280;42565;53.342;-1.534;2023-05-29T02:02:49;100316.42;;;11.59;56.07
56689;BME280;42565;53.342;-1.534;2023-05-29T02:05:16;100309.78;;;11.57;56.51
56689;BME280;42565;53.342;-1.534;2023-05-29T02:07:43;100305.74;;;11.78;56.05
56689;BME280;42565;53.342;-1.534;2023-05-29T02:10:10;100309.69;;;11.90;56.03
56689;BME280;42565;53.342;-1.534;2023-05-29T02:12:38;100313.10;;;11.39;56.60
56689;BME280;42565;53.342;-1.534;2023-05-29T02:15:05;100309.21;;;11.45;57.27
56689;BME280;42565;53.342;-1.534;2023-05-29T02:17:33;100307.52;;;10.75;57.42
56689;BME280;42565;53.342;-1.534;2023-05-29T02:19:59;100305.38;;;11.75;56.70
56689;BME280;42565;53.342;-1.534;2023-05-29T02:22:27;100307.40;;;11.29;56.94
56689;BME280;42565;53.342;-1.534;2023-05-29T02:24:54;100301.83;;;11.68;56.68
56689;BME280;42565;53.342;-1.534;2023-05-29T02:27:20;100299.50;;;11.43;57.24
56689;BME280;42565;53.342;-1.534;2023-05-29T02:29:48;100300.47;;;11.44;57.28
56689;BME280;42565;53.342;-1.534;2023-05-29T02:32:15;100308.85;;;11.58;56.86
56689;BME280;42565;53.342;-1.534;2023-05-29T02:34:41;100309.88;;;11.44;56.53
56689;BME280;42565;53.342;-1.534;2023-05-29T02:37:08;100309.69;;;11.90;56.04
56689;BME280;42565;53.342;-1.534;2023-05-29T02:39:35;100311.70;;;11.27;56.61
56689;BME280;42565;53.342;-1.534;2023-05-29T02:42:02;100312.72;;;11.53;56.18
56689;BME280;42565;53.342;-1.534;2023-05-29T02:44:29;100313.48;;;11.06;56.96
56689;BME280;42565;53.342;-1.534;2023-05-29T02:46:56;100309.88;;;11.55;57.16
56689;BME280;42565;53.342;-1.534;2023-05-29T02:49:23;100311.42;;;11.47;57.51
56689;BME280;42565;53.342;-1.534;2023-05-29T02:51:51;100306.35;;;12.10;56.48
56689;BME280;42565;53.342;-1.534;2023-05-29T02:54:18;100304.91;;;11.87;56.24
56689;BME280;42565;53.342;-1.534;2023-05-29T02:56:45;100311.23;;;11.77;56.68
56689;BME280;42565;53.342;-1.534;2023-05-29T02:59:11;100307.47;;;11.70;56.03
56689;BME280;42565;53.342;-1.534;2023-05-29T03:01:38;100309.45;;;11.87;55.88
56689;BME280;42565;53.342;-1.534;2023-05-29T03:04:06;100309.69;;;11.83;56.63
56689;BME280;42565;53.342;-1.534;2023-05-29T03:06:32;100314.50;;;11.68;56.90
56689;BME280;42565;53.342;-1.534;2023-05-29T03:08:59;100319.89;;;11.52;57.24
56689;BME280;42565;53.342;-1.534;2023-05-29T03:11:26;100317.18;;;11.34;57.61
56689;BME280;42565;53.342;-1.534;2023-05-29T03:13:53;100312.96;;;11.56;57.17
56689;BME280;42565;53.342;-1.534;2023-05-29T03:16:20;100307.22;;;12.28;56.29
56689;BME280;42565;53.342;-1.534;2023-05-29T03:18:47;100307.22;;;11.33;57.21
56689;BME280;42565;53.342;-1.534;2023-05-29T03:21:15;100306.22;;;11.86;56.92
56689;BME280;42565;53.342;-1.534;2023-05-29T03:23:42;100308.54;;;11.59;57.12
56689;BME280;42565;53.342;-1.534;2023-05-29T03:26:10;100301.29;;;11.98;56.62
56689;BME280;42565;53.342;-1.534;2023-05-29T03:28:37;100304.75;;;11.29;56.48
56689;BME280;42565;53.342;-1.534;2023-05-29T03:31:05;100305.09;;;11.75;56.73
56689;BME280;42565;53.342;-1.534;2023-05-29T03:33:31;100304.54;;;10.91;57.49
56689;BME280;42565;53.342;-1.534;2023-05-29T03:35:58;100307.08;;;11.47;57.11
56689;BME280;42565;53.342;-1.534;2023-05-29T03:38:26;100307.27;;;11.39;56.93
56689;BME280;42565;53.342;-1.534;2023-05-29T03:40:53;100306.96;;;11.43;57.11
56689;BME280;42565;53.342;-1.534;2023-05-29T03:43:20;100309.06;;;11.16;57.89
56689;BME280;42565;53.342;-1.534;2023-05-29T03:45:47;100309.69;;;11.66;56.47
56689;BME280;42565;53.342;-1.534;2023-05-29T03:48:14;100305.62;;;11.31;57.18
56689;BME280;42565;53.342;-1.534;2023-05-29T03:50:42;100306.65;;;11.81;56.17
56689;BME280;42565;53.342;-1.534;2023-05-29T03:53:09;100306.40;;;11.66;56.37
56689;BME280;42565;53.342;-1.534;2023-05-29T03:55:36;100304.93;;;11.85;55.50
56689;BME280;42565;53.342;-1.534;2023-05-29T03:58:03;100309.62;;;11.60;56.45
56689;BME280;42565;53.342;-1.534;2023-05-29T04:00:30;100309.98;;;11.01;56.21
56689;BME280;42565;53.342;-1.534;2023-05-29T04:02:57;100313.63;;;11.83;56.15
56689;BME280;42565;53.342;-1.534;2023-05-29T04:05:25;100319.85;;;11.53;56.71
56689;BME280;42565;53.342;-1.534;2023-05-29T04:07:52;100320.75;;;11.26;57.43
56689;BME280;42565;53.342;-1.534;2023-05-29T04:10:19;100321.84;;;11.42;57.09
56689;BME280;42565;53.342;-1.534;2023-05-29T04:12:46;100322.63;;;11.24;56.31
56689;BME280;42565;53.342;-1.534;2023-05-29T04:15:13;100323.06;;;11.51;56.10
56689;BME280;42565;53.342;-1.534;2023-05-29T04:17:41;100327.13;;;11.34;55.90
56689;BME280;42565;53.342;-1.534;2023-05-29T04:20:08;100330.75;;;11.25;56.79
56689;BME280;42565;53.342;-1.534;2023-05-29T04:22:36;100334.22;;;11.59;55.47
56689;BME280;42565;53.342;-1.534;2023-05-29T04:25:04;100335.13;;;11.73;55.65
56689;BME280;42565;53.342;-1.534;2023-05-29T04:27:31;100335.53;;;11.02;55.60
56689;BME280;42565;53.342;-1.534;2023-05-29T04:29:59;100334.76;;;11.36;55.63
56689;BME280;42565;53.342;-1.534;2023-05-29T04:32:26;100338.54;;;11.68;56.09
56689;BME280;42565;53.342;-1.534;2023-05-29T04:34:53;100338.82;;;11.15;56.23
56689;BME280;42565;53.342;-1.534;2023-05-29T04:37:20;100338.60;;;11.71;55.94
56689;BME280;42565;53.342;-1.534;2023-05-29T04:39:47;100341.48;;;11.30;56.42
56689;BME280;42565;53.342;-1.534;2023-05-29T04:42:14;100342.74;;;11.41;56.68
56689;BME280;42565;53.342;-1.534;2023-05-29T04:44:40;100338.24;;;10.80;57.27
56689;BME280;42565;53.342;-1.534;2023-05-29T04:47:08;100340.74;;;11.09;56.52
56689;BME280;42565;53.342;-1.534;2023-05-29T04:49:35;100341.81;;;11.15;55.84
56689;BME280;42565;53.342;-1.534;2023-05-29T04:52:01;100342.78;;;11.68;55.98
56689;BME280;42565;53.342;-1.534;2023-05-29T04:54:28;100345.13;;;10.82;56.73
56689;BME280;42565;53.342;-1.534;2023-05-29T04:56:56;100348.92;;;11.05;56.26
56689;BME280;42565;53.342;-1.534;2023-05-29T04:59:22;100352.36;;;11.90;55.67
56689;BME280;42565;53.342;-1.534;2023-05-29T05:01:49;100351.89;;;11.33;56.46
56689;BME280;42565;53.342;-1.534;2023-05-29T05:04:16;100349.78;;;11.63;56.35
56689;BME280;42565;53.342;-1.534;2023-05-29T05:06:42;100352.79;;;11.38;57.40
56689;BME280;42565;53.342;-1.534;2023-05-29T05:09:09;100356.01;;;11.73;56.03
56689;BME280;42565;53.342;-1.534;2023-05-29T05:11:36;100355.06;;;11.30;56.58
56689;BME280;42565;53.342;-1.534;2023-05-29T05:14:03;100360.29;;;11.72;56.17
56689;BME280;42565;53.342;-1.534;2023-05-29T05:16:30;100360.81;;;11.45;54.87
56689;BME280;42565;53.342;-1.534;2023-05-29T05:18:57;100360.74;;;11.92;54.93
56689;BME280;42565;53.342;-1.534;2023-05-29T05:21:24;100362.80;;;12.01;54.73
56689;BME280;42565;53.342;-1.534;2023-05-29T05:23:51;100362.79;;;12.15;53.76
56689;BME280;42565;53.342;-1.534;2023-05-29T05:26:18;100364.48;;;11.85;54.54
56689;BME280;42565;53.342;-1.534;2023-05-29T05:28:45;100359.56;;;12.25;54.43
56689;BME280;42565;53.342;-1.534;2023-05-29T05:31:11;100362.20;;;12.40;54.25
56689;BME280;42565;53.342;-1.534;2023-05-29T05:33:38;100358.57;;;12.17;54.20
56689;BME280;42565;53.342;-1.534;2023-05-29T05:36:05;100362.12;;;12.42;53.77
56689;BME280;42565;53.342;-1.534;2023-05-29T05:38:32;100360.73;;;12.54;53.39
56689;BME280;42565;53.342;-1.534;2023-05-29T05:41:00;100360.50;;;12.50;53.52
56689;BME280;42565;53.342;-1.534;2023-05-29T05:43:27;100362.74;;;12.47;53.37
56689;BME280;42565;53.342;-1.534;2023-05-29T05:45:54;100364.02;;;12.92;52.47
56689;BME280;42565;53.342;-1.534;2023-05-29T05:48:22;100362.55;;;12.63;52.32
56689;BME280;42565;53.342;-1.534;2023-05-29T05:50:48;100364.34;;;12.92;51.72
56689;BME280;42565;53.342;-1.534;2023-05-29T05:53:15;100364.24;;;12.58;52.04
56689;BME280;42565;53.342;-1.534;2023-05-29T05:55:43;100366.95;;;12.73;51.07
56689;BME280;42565;53.342;-1.534;2023-05-29T05:58:10;100366.62;;;13.12;50.84
56689;BME280;42565;53.342;-1.534;2023-05-29T06:00:37;100363.92;;;12.82;50.29
56689;BME280;42565;53.342;-1.534;2023-05-29T06:03:04;100368.87;;;13.38;49.75
56689;BME280;42565;53.342;-1.534;2023-05-29T06:05:31;100361.38;;;12.03;49.98
56689;BME280;42565;53.342;-1.534;2023-05-29T06:07:58;100364.91;;;13.13;48.78
56689;BME280;42565;53.342;-1.534;2023-05-29T06:10:25;100361.28;;;13.03;49.74
56689;BME280;42565;53.342;-1.534;2023-05-29T06:12:52;100367.36;;;13.05;49.13
56689;BME280;42565;53.342;-1.534;2023-05-29T06:15:19;100368.27;;;13.09;48.20
56689;BME280;42565;53.342;-1.534;2023-05-29T06:17:46;100369.33;;;12.81;48.20
56689;BME280;42565;53.342;-1.534;2023-05-29T06:20:13;100373.18;;;13.24;47.63
56689;BME280;42565;53.342;-1.534;2023-05-29T06:22:41;100376.99;;;13.39;47.20
56689;BME280;42565;53.342;-1.534;2023-05-29T06:25:09;100370.39;;;13.18;47.42
56689;BME280;42565;53.342;-1.534;2023-05-29T06:27:36;100373.74;;;12.24;48.34
56689;BME280;42565;53.342;-1.534;2023-05-29T06:30:04;100374.54;;;12.34;48.66
56689;BME280;42565;53.342;-1.534;2023-05-29T06:32:31;100375.07;;;12.14;49.07
56689;BME280;42565;53.342;-1.534;2023-05-29T06:34:58;100372.21;;;12.77;49.39
56689;BME280;42565;53.342;-1.534;2023-05-29T06:37:25;100369.94;;;13.10;48.75
56689;BME280;42565;53.342;-1.534;2023-05-29T06:39:53;100377.92;;;13.49;48.02
56689;BME280;42565;53.342;-1.534;2023-05-29T06:42:19;100377.61;;;13.16;47.85
56689;BME280;42565;53.342;-1.534;2023-05-29T06:44:46;100381.50;;;13.66;46.63
56689;BME280;42565;53.342;-1.534;2023-05-29T06:47:13;100388.01;;;13.01;47.41
56689;BME280;42565;53.342;-1.534;2023-05-29T06:49:40;100393.69;;;13.10;47.83
56689;BME280;42565;53.342;-1.534;2023-05-29T06:52:07;100398.14;;;13.46;47.52
56689;BME280;42565;53.342;-1.534;2023-05-29T06:54:34;100397.55;;;12.95;47.66
56689;BME280;42565;53.342;-1.534;2023-05-29T06:57:00;100395.36;;;13.36;47.39
56689;BME280;42565;53.342;-1.534;2023-05-29T06:59:27;100401.77;;;13.00;47.82
56689;BME280;42565;53.342;-1.534;2023-05-29T07:01:55;100397.52;;;13.18;48.91
56689;BME280;42565;53.342;-1.534;2023-05-29T07:04:21;100397.12;;;12.96;48.63
56689;BME280;42565;53.342;-1.534;2023-05-29T07:06:49;100401.07;;;13.58;47.98
56689;BME280;42565;53.342;-1.534;2023-05-29T07:09:15;100401.81;;;13.05;47.86
56689;BME280;42565;53.342;-1.534;2023-05-29T07:11:42;100400.81;;;12.87;48.01
56689;BME280;42565;53.342;-1.534;2023-05-29T07:14:09;100400.86;;;13.14;48.35
56689;BME280;42565;53.342;-1.534;2023-05-29T07:16:36;100400.71;;;13.18;48.17
56689;BME280;42565;53.342;-1.534;2023-05-29T07:19:03;100398.54;;;13.36;48.42
56689;BME280;42565;53.342;-1.534;2023-05-29T07:21:30;100403.05;;;12.15;48.29
56689;BME280;42565;53.342;-1.534;2023-05-29T07:23:59;100396.94;;;12.59;47.92
56689;BME280;42565;53.342;-1.534;2023-05-29T07:26:26;100406.19;;;11.42;50.10
56689;BME280;42565;53.342;-1.534;2023-05-29T07:28:53;100409.32;;;12.11;49.41
56689;BME280;42565;53.342;-1.534;2023-05-29T07:31:20;100403.38;;;12.86;50.14
56689;BME280;42565;53.342;-1.534;2023-05-29T07:33:48;100409.67;;;12.99;48.82
56689;BME280;42565;53.342;-1.534;2023-05-29T07:36:15;100410.08;;;13.63;46.75
56689;BME280;42565;53.342;-1.534;2023-05-29T07:38:43;100414.07;;;13.55;47.55
56689;BME280;42565;53.342;-1.534;2023-05-29T07:41:10;100411.95;;;13.90;46.66
56689;BME280;42565;53.342;-1.534;2023-05-29T07:43:38;100411.86;;;13.62;48.04
56689;BME280;42565;53.342;-1.534;2023-05-29T07:46:05;100414.48;;;13.46;47.87
56689;BME280;42565;53.342;-1.534;2023-05-29T07:48:31;100410.59;;;12.77;47.84
56689;BME280;42565;53.342;-1.534;2023-05-29T07:50:59;100409.56;;;13.27;47.03
56689;BME280;42565;53.342;-1.534;2023-05-29T07:53:26;100418.49;;;13.15;47.08
56689;BME280;42565;53.342;-1.534;2023-05-29T07:55:53;100423.50;;;13.39;47.93
56689;BME280;42565;53.342;-1.534;2023-05-29T07:58:21;100424.99;;;12.97;46.56
56689;BME280;42565;53.342;-1.534;2023-05-29T08:00:48;100424.40;;;13.61;47.32
56689;BME280;42565;53.342;-1.534;2023-05-29T08:03:15;100427.11;;;13.67;45.46
56689;BME280;42565;53.342;-1.534;2023-05-29T08:05:42;100431.50;;;13.82;45.17
56689;BME280;42565;53.342;-1.534;2023-05-29T08:08:09;100435.28;;;13.10;46.31
56689;BME280;42565;53.342;-1.534;2023-05-29T08:10:36;100439.15;;;13.38;46.09
56689;BME280;42565;53.342;-1.534;2023-05-29T08:13:03;100437.42;;;12.46;46.61
56689;BME280;42565;53.342;-1.534;2023-05-29T08:15:30;100437.37;;;11.85;47.55
56689;BME280;42565;53.342;-1.534;2023-05-29T08:17:57;100431.60;;;12.77;46.42
56689;BME280;42565;53.342;-1.534;2023-05-29T08:20:24;100442.19;;;12.97;46.58
56689;BME280;42565;53.342;-1.534;2023-05-29T08:22:51;100445.19;;;12.45;46.70
56689;BME280;42565;53.342;-1.534;2023-05-29T08:25:19;100445.45;;;11.93;48.11
56689;BME280;42565;53.342;-1.534;2023-05-29T08:27:46;100444.37;;;10.47;50.09
56689;BME280;42565;53.342;-1.534;2023-05-29T08:30:14;100447.22;;;11.76;49.66
56689;BME280;42565;53.342;-1.534;2023-05-29T08:32:42;100453.34;;;11.15;51.57
56689;BME280;42565;53.342;-1.534;2023-05-29T08:35:09;100450.45;;;11.68;49.11
56689;BME280;42565;53.342;-1.534;2023-05-29T08:37:36;100453.51;;;12.35;50.23
56689;BME280;42565;53.342;-1.534;2023-05-29T08:40:04;100446.54;;;13.04;48.71
56689;BME280;42565;53.342;-1.534;2023-05-29T08:42:35;100453.34;;;12.70;46.54
56689;BME280;42565;53.342;-1.534;2023-05-29T08:45:04;100450.35;;;12.98;45.50
56689;BME280;42565;53.342;-1.534;2023-05-29T08:47:33;100450.67;;;12.45;45.88
56689;BME280;42565;53.342;-1.534;2023-05-29T08:50:01;100452.58;;;12.89;45.97
56689;BME280;42565;53.342;-1.534;2023-05-29T08:52:31;100457.62;;;13.12;46.44
56689;BME280;42565;53.342;-1.534;2023-05-29T08:55:00;100452.39;;;13.27;45.09
56689;BME280;42565;53.342;-1.534;2023-05-29T08:57:29;100448.03;;;13.24;45.72
56689;BME280;42565;53.342;-1.534;2023-05-29T08:59:57;100450.19;;;12.75;46.31
56689;BME280;42565;53.342;-1.534;2023-05-29T09:02:24;100449.15;;;13.22;45.21
56689;BME280;42565;53.342;-1.534;2023-05-29T09:04:51;100450.51;;;14.20;46.08
56689;BME280;42565;53.342;-1.534;2023-05-29T09:07:18;100450.27;;;14.00;44.16
56689;BME280;42565;53.342;-1.534;2023-05-29T09:09:46;100449.93;;;13.96;43.27
56689;BME280;42565;53.342;-1.534;2023-05-29T09:12:14;100448.51;;;13.58;43.70
56689;BME280;42565;53.342;-1.534;2023-05-29T09:14:42;100450.41;;;14.00;43.71
56689;BME280;42565;53.342;-1.534;2023-05-29T09:17:10;100447.46;;;14.24;43.00
56689;BME280;42565;53.342;-1.534;2023-05-29T09:19:39;100450.40;;;13.48;44.97
56689;BME280;42565;53.342;-1.534;2023-05-29T09:22:07;100453.34;;;13.09;44.46
56689;BME280;42565;53.342;-1.534;2023-05-29T09:24:35;100450.52;;;12.43;47.42
56689;BME280;42565;53.342;-1.534;2023-05-29T09:27:03;100456.81;;;13.73;46.67
56689;BME280;42565;53.342;-1.534;2023-05-29T09:29:31;100457.15;;;13.76;44.67
56689;BME280;42565;53.342;-1.534;2023-05-29T09:31:59;100456.73;;;14.86;43.31
56689;BME280;42565;53.342;-1.534;2023-05-29T09:34:28;100451.77;;;14.65;42.72
56689;BME280;42565;53.342;-1.534;2023-05-29T09:37:02;100444.79;;;15.38;42.61
56689;BME280;42565;53.342;-1.534;2023-05-29T09:39:29;100447.97;;;14.95;39.96
56689;BME280;42565;53.342;-1.534;2023-05-29T09:41:56;100448.07;;;15.02;40.67
56689;BME280;42565;53.342;-1.534;2023-05-29T09:44:26;100452.42;;;14.95;42.85
56689;BME280;42565;53.342;-1.534;2023-05-29T09:46:58;100448.88;;;14.34;43.56
56689;BME280;42565;53.342;-1.534;2023-05-29T09:49:26;100450.62;;;14.08;42.97
56689;BME280;42565;53.342;-1.534;2023-05-29T09:51:54;100445.65;;;14.57;45.52
56689;BME280;42565;53.342;-1.534;2023-05-29T09:54:21;100445.85;;;15.10;43.12
56689;BME280;42565;53.342;-1.534;2023-05-29T09:56:50;100446.69;;;15.04;40.83
56689;BME280;42565;53.342;-1.534;2023-05-29T09:59:19;100449.90;;;15.24;41.81
56689;BME280;42565;53.342;-1.534;2023-05-29T10:01:46;100443.75;;;14.86;42.23
56689;BME280;42565;53.342;-1.534;2023-05-29T10:04:13;100439.12;;;15.25;40.82
56689;BME280;42565;53.342;-1.534;2023-05-29T10:06:44;100436.43;;;15.72;40.00
56689;BME280;42565;53.342;-1.534;2023-05-29T10:09:12;100441.04;;;15.76;41.30
56689;BME280;42565;53.342;-1.534;2023-05-29T10:11:43;100439.40;;;16.50;40.91
56689;BME280;42565;53.342;-1.534;2023-05-29T10:14:18;100439.48;;;16.58;39.66
56689;BME280;42565;53.342;-1.534;2023-05-29T10:16:47;100440.37;;;16.40;38.96
56689;BME280;42565;53.342;-1.534;2023-05-29T10:19:21;100436.64;;;16.78;38.81
56689;BME280;42565;53.342;-1.534;2023-05-29T10:21:53;100435.34;;;16.72;39.74
56689;BME280;42565;53.342;-1.534;2023-05-29T10:24:21;100435.79;;;16.00;40.54
56689;BME280;42565;53.342;-1.534;2023-05-29T10:26:49;100429.47;;;15.80;41.22
56689;BME280;42565;53.342;-1.534;2023-05-29T10:29:26;100432.47;;;16.44;40.64
56689;BME280;42565;53.342;-1.534;2023-05-29T10:32:05;100431.46;;;17.27;38.52
56689;BME280;42565;53.342;-1.534;2023-05-29T10:34:39;100430.69;;;16.25;38.48
56689;BME280;42565;53.342;-1.534;2023-05-29T10:37:18;100437.06;;;17.18;38.09
56689;BME280;42565;53.342;-1.534;2023-05-29T10:39:48;100438.16;;;16.13;39.81
56689;BME280;42565;53.342;-1.534;2023-05-29T10:42:49;100436.96;;;15.74;39.65
56689;BME280;42565;53.342;-1.534;2023-05-29T10:45:49;100435.00;;;14.26;41.71
56689;BME280;42565;53.342;-1.534;2023-05-29T10:48:50;100438.84;;;14.76;44.47
56689;BME280;42565;53.342;-1.534;2023-05-29T10:51:26;100435.76;;;16.64;39.67
56689;BME280;42565;53.342;-1.534;2023-05-29T10:53:54;100429.15;;;16.17;39.43
56689;BME280;42565;53.342;-1.534;2023-05-29T10:56:23;100430.89;;;17.17;38.89
56689;BME280;42565;53.342;-1.534;2023-05-29T10:58:54;100424.51;;;17.53;38.33
56689;BME280;42565;53.342;-1.534;2023-05-29T11:01:22;100421.74;;;17.28;37.93
56689;BME280;42565;53.342;-1.534;2023-05-29T11:03:50;100418.41;;;16.56;38.63
56689;BME280;42565;53.342;-1.534;2023-05-29T11:06:19;100429.08;;;17.53;35.68
56689;BME280;42565;53.342;-1.534;2023-05-29T11:08:47;100426.50;;;17.29;37.02
56689;BME280;42565;53.342;-1.534;2023-05-29T11:11:15;100432.46;;;17.95;36.80
56689;BME280;42565;53.342;-1.534;2023-05-29T11:13:52;100432.36;;;17.75;36.70
56689;BME280;42565;53.342;-1.534;2023-05-29T11:16:35;100430.54;;;17.84;35.95
56689;BME280;42565;53.342;-1.534;2023-05-29T11:19:04;100433.78;;;17.54;37.10
56689;BME280;42565;53.342;-1.534;2023-05-29T11:21:34;100428.16;;;17.30;36.75
56689;BME280;42565;53.342;-1.534;2023-05-29T11:24:05;100426.35;;;17.85;37.26
56689;BME280;42565;53.342;-1.534;2023-05-29T11:26:35;100418.38;;;18.59;36.01
56689;BME280;42565;53.342;-1.534;2023-05-29T11:29:04;100422.90;;;17.89;35.45
56689;BME280;42565;53.342;-1.534;2023-05-29T11:31:33;100417.93;;;17.07;36.15
56689;BME280;42565;53.342;-1.534;2023-05-29T11:34:01;100417.93;;;17.05;37.20
56689;BME280;42565;53.342;-1.534;2023-05-29T11:36:29;100419.30;;;17.45;38.04
56689;BME280;42565;53.342;-1.534;2023-05-29T11:38:57;100421.28;;;17.23;36.25
56689;BME280;42565;53.342;-1.534;2023-05-29T11:41:25;100420.00;;;18.17;35.24
56689;BME280;42565;53.342;-1.534;2023-05-29T11:43:57;100423.90;;;17.80;36.58
56689;BME280;42565;53.342;-1.534;2023-05-29T11:46:25;100421.99;;;18.10;35.72
56689;BME280;42565;53.342;-1.534;2023-05-29T11:48:52;100413.43;;;18.26;34.57
56689;BME280;42565;53.342;-1.534;2023-05-29T11:51:19;100418.79;;;18.64;35.68
56689;BME280;42565;53.342;-1.534;2023-05-29T11:53:47;100416.67;;;16.44;37.04
56689;BME280;42565;53.342;-1.534;2023-05-29T11:56:15;100421.99;;;17.42;37.25
56689;BME280;42565;53.342;-1.534;2023-05-29T11:58:42;100419.13;;;17.80;37.11
56689;BME280;42565;53.342;-1.534;2023-05-29T12:01:10;100415.70;;;18.53;35.67
56689;BME280;42565;53.342;-1.534;2023-05-29T12:03:38;100415.14;;;18.64;37.10
56689;BME280;42565;53.342;-1.534;2023-05-29T12:06:06;100414.69;;;19.07;35.30
56689;BME280;42565;53.342;-1.534;2023-05-29T12:08:35;100409.86;;;18.38;34.09
56689;BME280;42565;53.342;-1.534;2023-05-29T12:11:02;100410.06;;;18.80;34.33
56689;BME280;42565;53.342;-1.534;2023-05-29T12:13:30;100405.25;;;19.02;34.89
56689;BME280;42565;53.342;-1.534;2023-05-29T12:15:59;100412.22;;;18.71;36.12
56689;BME280;42565;53.342;-1.534;2023-05-29T12:18:28;100403.00;;;18.89;34.99
56689;BME280;42565;53.342;-1.534;2023-05-29T12:20:59;100403.08;;;19.53;34.34
56689;BME280;42565;53.342;-1.534;2023-05-29T12:23:28;100402.98;;;19.78;33.28
56689;BME280;42565;53.342;-1.534;2023-05-29T12:25:55;100394.07;;;19.66;33.65
56689;BME280;42565;53.342;-1.534;2023-05-29T12:28:23;100399.47;;;19.19;34.31
56689;BME280;42565;53.342;-1.534;2023-05-29T12:30:50;100403.65;;;19.74;32.76
56689;BME280;42565;53.342;-1.534;2023-05-29T12:33:33;100399.19;;;20.58;32.18
56689;BME280;42565;53.342;-1.534;2023-05-29T12:36:03;100397.31;;;18.33;34.88
56689;BME280;42565;53.342;-1.534;2023-05-29T12:38:31;100399.30;;;17.24;35.87
56689;BME280;42565;53.342;-1.534;2023-05-29T12:40:58;100395.88;;;17.73;36.23
56689;BME280;42565;53.342;-1.534;2023-05-29T12:43:25;100397.97;;;18.10;37.50
56689;BME280;42565;53.342;-1.534;2023-05-29T12:45:56;100399.64;;;18.65;34.96